Date,TemperatureHighF,TemperatureAvgF,TemperatureLowF,DewpointHighF,DewpointAvgF,DewpointLowF,HumidityHigh,HumidityAvg,HumidityLow,PressureMaxIn,PressureMinIn,WindSpeedMaxMPH,WindSpeedAvgMPH,GustSpeedMaxMPH,PrecipitationSumIn
2013-1-1,39.5,36.6,30.4,32.0,28.8,21.0,83,74,66,30.06,29.93,5,1,0,0.01
2013-1-2,31.6,27.1,21.1,21.0,16.9,15.0,82,66,53,30.27,30.04,14,2,0,0.01
2013-1-3,33.0,24.9,15.9,22.0,16.8,13.0,88,72,53,30.28,30.17,8,1,0,0.00
2013-1-4,38.1,32.9,27.5,24.0,22.2,21.0,79,65,55,30.20,30.08,9,2,0,0.00
2013-1-5,38.8,31.3,25.2,24.0,21.9,20.0,86,69,55,30.41,30.13,8,2,0,0.00
2013-1-6,46.9,36.5,27.2,34.0,28.4,25.0,94,75,49,30.27,30.05,8,1,0,0.02
2013-1-7,42.8,35.8,21.6,31.0,27.4,19.0,89,72,58,30.46,30.16,8,2,0,0.02
2013-1-8,45.7,29.9,19.1,33.0,24.7,17.0,95,82,61,30.46,30.41,6,1,0,0.00
2013-1-9,47.7,35.0,21.4,39.0,30.6,20.0,95,84,71,30.45,30.24,5,1,0,0.00
2013-1-10,47.5,40.1,32.6,34.0,28.8,27.0,85,65,50,30.59,30.37,7,1,0,0.00
2013-1-11,45.2,37.9,29.5,41.0,34.3,26.0,95,87,75,30.55,30.13,6,0,0,0.45
2013-1-12,56.0,44.0,39.3,49.0,41.9,38.0,96,92,78,30.21,30.13,3,0,0,0.45
2013-1-13,45.1,43.1,39.0,44.0,42.2,38.0,97,96,94,30.19,30.02,4,1,0,0.01
2013-1-14,52.3,47.8,39.4,52.0,43.8,35.0,98,87,63,30.34,29.98,7,1,0,0.09
2013-1-15,39.3,36.6,32.9,37.0,32.4,29.0,94,85,73,30.38,30.23,4,1,0,0.10
2013-1-16,37.1,33.8,32.2,36.0,32.6,31.0,96,95,92,30.22,29.88,6,1,0,0.62
2013-1-17,39.9,38.1,34.9,37.0,31.0,29.0,96,76,66,30.15,29.98,8,2,0,0.62
2013-1-18,35.7,28.9,20.4,29.0,18.0,10.0,85,65,42,30.53,30.05,8,2,0,0.01
2013-1-19,48.5,35.1,22.6,31.0,25.0,17.0,86,68,48,30.45,29.97,10,3,0,0.01
2013-1-20,54.1,41.0,28.8,33.0,23.8,13.0,75,52,29,30.11,29.81,14,4,0,0.00
2013-1-21,32.6,27.1,21.4,23.0,14.4,10.0,82,60,48,30.14,29.90,8,2,0,0.00
2013-1-22,23.1,16.2,11.7,16.0,-0.6,-4.0,80,48,38,30.32,29.94,16,4,0,0.00
2013-1-23,19.1,12.3,6.7,3.0,0.3,-4.0,83,60,45,30.36,30.23,7,2,0,0.00
2013-1-24,24.1,17.1,7.9,9.0,4.3,0.0,84,59,37,30.52,30.18,11,2,0,0.00
2013-1-25,21.4,15.5,8.3,15.0,5.7,1.0,92,66,46,30.53,30.13,7,1,0,0.00
2013-1-26,25.6,17.8,8.0,14.0,11.0,5.0,90,75,54,30.47,30.13,8,2,0,0.02
2013-1-27,33.3,19.9,5.3,17.0,12.1,2.0,90,74,48,30.63,30.48,7,1,0,0.02
2013-1-28,35.9,29.6,18.1,35.0,27.4,15.0,96,91,86,30.56,30.09,5,1,0,0.14
2013-1-29,58.4,44.0,34.3,50.0,41.3,33.0,96,91,74,30.18,30.06,5,0,0,0.01
2013-1-30,66.4,49.9,34.9,60.0,47.9,33.0,100,93,80,30.05,29.32,18,2,0,0.52
2013-1-31,61.4,41.3,26.9,60.0,29.1,12.0,97,64,40,29.89,29.11,13,5,0,0.36
2013-2-1,28.2,25.0,19.0,19.0,10.0,5.0,73,54,40,30.35,29.87,13,4,0,0.36
2013-2-2,25.5,21.0,13.6,21.0,11.6,5.0,90,68,48,30.38,30.08,10,2,0,0.00
2013-2-3,31.9,25.6,20.8,25.0,20.9,14.0,91,83,63,30.08,29.86,15,1,0,0.08
2013-2-4,31.0,24.4,19.4,20.0,13.7,10.0,82,64,50,30.11,29.96,8,2,0,0.01
2013-2-5,33.0,29.9,25.7,29.0,26.2,22.0,92,86,80,30.00,29.92,3,0,0,0.02
2013-2-6,39.1,30.8,23.5,30.0,24.7,19.0,95,79,54,30.40,29.97,7,1,0,0.04
2013-2-7,34.8,27.8,17.8,22.0,17.9,14.0,91,68,43,30.52,30.31,5,1,0,0.01
2013-2-8,35.5,33.0,30.3,34.0,30.0,22.0,94,89,70,30.30,29.75,9,2,0,0.13
2013-2-9,32.3,27.4,22.8,27.0,17.2,13.0,88,66,55,30.43,29.88,13,6,0,0.14
2013-2-10,42.3,28.6,12.5,27.0,15.0,8.0,90,61,28,30.54,30.34,6,1,0,0.18
2013-2-11,47.8,39.6,31.7,47.0,37.7,27.0,100,92,78,30.33,29.71,9,2,0,0.27
2013-2-12,45.1,39.1,26.5,37.0,27.6,23.0,87,64,49,30.02,29.82,10,2,0,0.27
2013-2-13,43.7,32.0,21.3,31.0,26.0,19.0,94,80,56,30.02,29.72,4,1,0,0.02
2013-2-14,44.8,34.5,25.5,33.0,29.4,23.0,94,83,49,30.06,29.78,4,1,0,0.14
2013-2-15,55.8,39.8,25.8,37.0,30.8,23.0,95,73,45,30.06,29.96,6,1,0,0.14
2013-2-16,34.6,32.1,28.4,32.0,27.1,16.0,94,82,60,30.03,29.84,9,2,0,0.05
2013-2-17,30.2,25.3,20.3,19.0,10.3,3.0,82,53,42,30.17,29.82,14,5,0,0.05
2013-2-18,35.7,25.6,17.9,19.0,11.0,5.0,76,55,37,30.39,30.18,9,3,0,0.00
2013-2-19,41.1,33.5,21.6,39.0,29.1,18.0,94,84,59,30.23,29.75,13,2,0,0.26
2013-2-20,34.4,27.8,22.6,25.0,14.4,10.0,68,58,48,30.13,29.84,17,4,0,0.26
2013-2-21,34.5,27.2,22.0,18.0,14.4,11.0,66,59,48,30.36,30.11,11,4,0,0.00
2013-2-22,35.0,29.3,23.0,29.0,21.0,15.0,86,71,61,30.43,30.29,8,1,0,0.00
2013-2-23,42.5,37.6,32.6,42.0,36.1,29.0,96,94,86,30.30,29.85,4,1,0,0.09
2013-2-24,44.9,37.4,30.0,38.0,30.0,20.0,96,76,55,30.11,29.82,10,3,0,0.09
2013-2-25,45.9,34.4,24.9,28.0,24.0,20.0,88,67,48,30.28,30.10,6,2,0,0.00
2013-2-26,43.2,34.0,22.2,35.0,29.3,20.0,94,84,64,30.29,29.78,8,2,0,0.40
2013-2-27,49.3,42.8,36.9,44.0,38.4,34.0,96,85,65,29.77,29.56,13,2,0,0.07
2013-2-28,44.8,39.1,34.3,37.0,31.9,26.0,93,77,50,29.72,29.63,10,2,0,0.07
2013-3-1,42.5,37.4,32.8,31.0,28.7,24.0,85,71,58,29.88,29.71,9,2,0,0.00
2013-3-2,37.6,33.3,30.5,25.0,22.9,21.0,76,66,54,29.87,29.79,8,3,0,0.00
2013-3-3,35.6,30.9,27.4,23.0,19.8,16.0,73,64,51,29.88,29.80,10,4,0,0.00
2013-3-4,37.9,31.6,27.2,22.0,19.4,16.0,67,61,52,30.04,29.88,9,4,0,0.00
2013-3-5,47.1,35.5,28.7,28.0,24.5,21.0,80,65,47,30.09,29.95,8,2,0,0.00
2013-3-6,38.9,36.8,33.4,36.0,32.0,27.0,91,83,68,30.00,29.78,17,5,0,0.24
2013-3-7,43.9,38.9,32.9,28.0,25.4,20.0,72,59,49,30.14,29.99,11,5,0,0.24
2013-3-8,43.0,36.7,29.3,29.0,25.1,19.0,90,64,51,30.29,30.12,17,6,0,0.02
2013-3-9,61.7,42.8,28.7,29.0,23.1,20.0,80,50,21,30.36,30.27,8,2,0,0.02
2013-3-10,58.1,40.5,22.6,35.0,26.5,20.0,91,63,29,30.39,30.29,8,2,0,0.00
2013-3-11,55.7,47.1,37.9,48.0,42.2,35.0,96,84,64,30.33,30.07,7,2,0,0.00
2013-3-12,56.1,49.8,41.0,55.0,46.3,32.0,96,88,68,30.04,29.73,14,4,0,1.20
2013-3-13,46.0,38.9,28.9,35.0,27.9,18.0,91,66,45,30.03,29.89,10,3,0,1.20
2013-3-14,40.9,34.0,28.6,21.0,16.7,14.0,69,50,35,30.07,29.99,18,5,0,0.00
2013-3-15,51.7,38.2,22.4,33.0,22.5,13.0,80,55,40,30.09,29.79,14,3,0,0.00
2013-3-16,43.1,35.9,31.9,33.0,30.0,26.0,94,80,61,29.98,29.77,5,1,0,0.11
2013-3-17,39.2,32.5,27.5,31.0,25.6,20.0,94,77,52,30.34,29.96,7,1,0,0.05
2013-3-18,36.9,31.7,26.1,32.0,24.3,15.0,94,76,49,30.40,29.94,7,1,0,0.09
2013-3-19,51.4,38.4,33.4,39.0,31.9,19.0,96,81,35,29.94,29.74,8,2,0,0.31
2013-3-20,47.7,39.0,27.9,26.0,19.9,16.0,70,48,28,29.98,29.82,10,2,0,0.08
2013-3-21,36.7,31.6,26.8,28.0,17.4,9.0,89,58,38,29.86,29.73,10,3,0,0.08
2013-3-22,41.3,32.1,24.8,27.0,19.8,13.0,77,61,44,30.01,29.85,11,3,0,0.00
2013-3-23,47.0,37.0,30.0,24.0,21.5,20.0,69,55,39,30.02,29.94,8,3,0,0.00
2013-3-24,44.8,34.5,20.8,28.0,21.9,18.0,91,63,38,30.03,29.72,9,1,0,0.00
2013-3-25,36.2,34.4,32.1,33.0,30.4,26.0,93,85,68,29.74,29.53,5,1,0,0.37
2013-3-26,50.9,39.4,32.6,34.0,31.6,26.0,94,76,40,29.97,29.70,9,2,0,0.04
2013-3-27,49.2,41.5,34.5,32.0,28.7,26.0,88,62,43,30.09,29.96,16,4,0,0.04
2013-3-28,46.1,41.1,35.8,32.0,28.5,27.0,76,62,50,30.21,30.05,11,3,0,0.00
2013-3-29,51.4,44.1,35.6,31.0,28.6,25.0,74,56,43,30.24,30.14,7,2,0,0.00
2013-3-30,57.4,41.1,25.1,35.0,26.5,23.0,94,61,29,30.25,30.14,7,1,0,0.00
2013-3-31,53.2,41.1,27.1,46.0,35.3,24.0,94,81,49,30.18,29.77,14,2,0,0.06
2013-4-1,62.4,46.4,33.4,47.0,33.7,13.0,96,66,33,29.99,29.73,12,3,0,0.06
2013-4-2,44.5,36.7,29.0,17.0,14.7,12.0,59,41,29,30.18,29.99,12,3,0,0.00
2013-4-3,46.5,35.0,22.9,19.0,15.3,11.0,79,47,27,30.38,30.18,12,3,0,0.00
2013-4-4,52.3,36.3,21.5,25.0,19.3,15.0,83,53,27,30.46,30.13,8,2,0,0.00
2013-4-5,61.7,48.0,36.7,35.0,27.0,17.0,89,51,22,30.12,29.82,11,3,0,0.00
2013-4-6,54.4,42.7,32.7,30.0,19.4,14.0,69,42,23,30.36,30.06,8,2,0,0.00
2013-4-7,63.3,51.7,36.9,44.0,36.4,27.0,74,58,42,30.33,30.03,14,4,0,0.00
2013-4-8,78.8,61.9,43.3,51.0,46.0,39.0,88,60,34,30.10,29.98,9,1,0,0.00
2013-4-9,83.7,68.2,50.2,55.0,51.6,46.0,89,59,33,30.06,29.93,9,2,0,0.00
2013-4-10,89.1,72.9,55.0,60.0,56.0,50.0,91,59,35,29.96,29.77,15,2,0,0.18
2013-4-11,75.2,61.8,50.4,64.0,56.2,45.0,97,83,65,29.94,29.82,8,1,0,0.01
2013-4-12,50.1,45.6,43.3,46.0,43.8,42.0,96,93,84,29.93,29.70,7,2,0,0.58
2013-4-13,61.6,49.5,37.9,43.0,38.7,34.0,96,70,40,30.01,29.80,10,1,0,0.01
2013-4-14,61.3,48.7,33.2,41.0,34.4,28.0,95,62,34,30.19,30.01,7,2,0,0.01
2013-4-15,61.8,51.6,43.9,46.0,40.8,32.0,84,67,52,30.36,30.18,8,2,0,0.00
2013-4-16,71.1,58.4,44.3,57.0,50.7,41.0,92,76,61,30.36,30.14,17,3,0,0.00
2013-4-17,72.5,60.9,52.1,56.0,50.0,41.0,94,71,33,30.30,30.12,8,1,0,0.00
2013-4-18,62.4,56.6,52.8,59.0,50.4,40.0,94,80,57,30.30,30.07,4,1,0,0.04
2013-4-19,74.9,64.4,52.8,66.0,60.2,51.0,95,87,69,30.07,29.62,24,4,0,0.38
2013-4-20,56.6,49.3,41.2,50.0,34.5,26.0,92,60,35,30.37,29.78,17,3,0,0.31
2013-4-21,54.5,43.6,33.5,34.0,25.6,21.0,78,51,32,30.64,30.37,8,2,0,0.02
2013-4-22,56.4,43.8,30.0,37.0,32.3,28.0,94,67,43,30.64,30.47,8,2,0,0.05
2013-4-23,54.7,47.7,41.5,44.0,39.3,34.0,82,73,60,30.47,30.17,6,2,0,0.05
2013-4-24,73.7,53.7,33.6,57.0,46.9,32.0,95,79,54,30.16,29.82,10,2,0,0.00
2013-4-25,62.2,50.9,38.3,51.0,33.3,28.0,82,54,30,30.32,29.95,11,3,0,0.00
2013-4-26,64.5,48.9,33.6,39.0,32.1,26.0,94,59,24,30.47,30.32,8,1,0,0.00
2013-4-27,70.4,51.5,31.1,42.0,34.4,29.0,95,59,28,30.48,30.32,5,1,0,0.00
2013-4-28,69.7,54.2,37.0,46.0,37.6,32.0,94,59,31,30.34,30.21,11,2,0,0.00
2013-4-29,55.8,53.7,50.4,54.0,50.7,39.0,95,90,58,30.23,30.13,7,1,0,0.51
2013-4-30,70.6,58.8,47.4,53.0,47.2,37.0,96,69,39,30.34,30.17,9,2,0,0.01
2013-5-1,71.4,54.1,35.6,43.0,36.7,31.0,93,58,24,30.49,30.34,8,1,0,0.01
2013-5-2,73.0,55.1,36.7,47.0,41.2,35.0,96,65,32,30.48,30.35,8,1,0,0.00
2013-5-3,67.9,53.8,40.6,45.0,39.9,35.0,94,64,33,30.44,30.36,8,1,0,0.00
2013-5-4,71.9,53.8,35.1,48.0,39.9,33.0,95,64,32,30.39,30.23,8,1,0,0.00
2013-5-5,67.4,52.4,39.1,43.0,39.8,36.0,92,65,38,30.30,30.20,8,1,0,0.00
2013-5-6,68.0,53.7,38.3,55.0,47.7,36.0,94,81,62,30.26,30.14,8,1,0,0.00
2013-5-7,71.7,59.9,52.0,62.0,55.8,49.0,95,87,65,30.16,30.05,5,1,0,0.15
2013-5-8,74.6,62.6,56.3,63.0,57.1,53.0,96,84,48,30.06,29.94,8,1,0,0.29
2013-5-9,70.6,61.0,53.9,59.0,55.4,52.0,96,83,62,30.00,29.94,5,1,0,0.04
2013-5-10,83.0,66.0,48.6,63.0,55.1,47.0,97,72,38,30.04,29.91,9,1,0,0.38
2013-5-11,75.3,65.3,60.6,67.0,62.0,59.0,97,90,70,29.94,29.73,7,1,0,0.16
2013-5-12,62.5,57.1,45.5,58.0,40.6,28.0,93,58,32,30.02,29.74,14,2,0,0.02
2013-5-13,56.5,45.6,35.0,38.0,30.9,25.0,93,60,35,30.18,30.02,6,1,0,0.01
2013-5-14,60.2,46.4,29.2,42.0,31.0,27.0,95,61,30,30.23,30.08,6,1,0,0.28
2013-5-15,70.4,58.1,46.8,60.0,51.3,42.0,93,80,58,30.12,29.74,6,1,0,0.03
2013-5-16,82.8,67.3,54.8,67.0,59.3,53.0,96,78,45,29.91,29.75,6,0,0,0.04
2013-5-17,78.5,63.1,47.8,55.0,48.0,43.0,92,62,32,30.21,29.91,6,1,0,0.04
2013-5-18,70.0,61.0,55.3,56.0,52.2,47.0,94,74,50,30.29,30.21,7,1,0,0.04
2013-5-19,64.0,60.2,57.4,62.0,58.7,56.0,96,95,91,30.28,30.16,5,0,0,0.05
2013-5-20,80.2,68.4,60.7,70.0,64.2,60.0,97,87,69,30.18,30.01,5,0,0,0.01
2013-5-21,83.1,71.9,59.5,71.0,66.5,58.0,96,84,65,30.01,29.89,6,1,0,0.01
2013-5-22,89.6,75.5,63.6,73.0,68.5,62.0,96,80,51,29.94,29.84,13,2,0,0.00
2013-5-23,80.3,71.1,64.1,70.0,66.5,62.0,95,86,67,29.91,29.78,10,2,0,0.32
2013-5-24,63.9,54.2,45.2,62.0,49.5,38.0,96,84,67,30.10,29.74,12,2,0,0.05
2013-5-25,61.8,52.6,44.4,40.0,36.2,34.0,80,56,36,30.13,30.05,13,3,0,0.05
2013-5-26,70.0,56.4,44.0,43.0,37.8,35.0,86,53,30,30.25,30.11,11,1,0,0.00
2013-5-27,73.5,57.0,36.3,50.0,41.1,34.0,96,62,29,30.31,30.20,7,0,0,0.00
2013-5-28,65.1,58.1,50.9,63.0,56.2,48.0,95,93,87,30.24,30.13,3,0,0,0.21
2013-5-29,91.5,81.8,69.2,71.0,63.6,-99.9,86,58,42,30.13,30.06,7,-16,0,0.00
2013-5-30,94.7,78.0,60.3,72.0,65.2,58.0,97,69,37,30.18,30.11,4,0,0,0.00
2013-5-31,92.9,78.1,62.9,71.0,65.2,60.0,96,69,34,30.16,30.04,8,1,0,0.00
2013-6-1,91.5,76.9,60.8,72.0,66.8,59.0,96,73,48,30.05,29.93,7,1,0,0.00
2013-6-2,85.9,77.1,66.5,73.0,68.5,64.0,93,75,60,29.93,29.82,11,2,0,0.00
2013-6-3,84.1,71.8,60.7,69.0,65.3,58.0,95,81,55,29.92,29.83,5,0,0,0.07
2013-6-4,76.2,63.1,49.8,58.0,49.1,44.0,91,64,36,30.15,29.93,8,1,0,0.07
2013-6-5,74.0,54.3,44.9,53.0,46.1,43.0,96,78,35,30.23,30.14,4,0,0,0.00
2013-6-7,66.8,63.9,60.8,66.0,63.1,60.0,97,97,96,29.78,29.62,5,2,0,0.65
2013-6-8,77.8,67.0,59.6,65.0,62.1,57.0,97,85,62,30.12,29.66,5,1,0,0.07
2013-6-9,83.7,69.3,53.7,67.0,60.4,52.0,97,76,45,30.23,30.12,5,0,0,0.03
2013-6-10,72.6,69.2,65.3,71.0,67.6,62.0,96,94,87,30.17,29.79,7,1,0,0.02
2013-6-11,81.1,73.1,64.2,69.0,65.4,60.0,97,78,60,29.82,29.73,8,1,0,0.03
2013-6-12,83.8,73.3,63.2,67.0,62.8,59.0,89,71,49,29.87,29.82,4,1,0,0.02
2013-6-13,84.6,70.3,60.0,72.0,64.7,57.0,95,83,58,29.86,29.42,15,1,0,0.01
2013-6-14,76.8,64.2,55.3,58.0,55.2,52.0,94,75,50,29.97,29.57,13,2,0,0.01
2013-6-15,82.2,67.2,51.4,63.0,56.1,50.0,97,71,42,30.08,29.97,4,0,0,0.01
2013-6-16,82.5,74.3,56.3,68.0,64.5,54.0,93,73,50,30.04,29.87,6,1,0,0.01
2013-6-17,88.6,72.9,61.4,71.0,65.8,60.0,96,80,52,29.97,29.89,7,0,0,0.01
2013-6-18,81.1,66.6,61.5,72.0,64.2,60.0,96,92,73,29.95,29.82,4,0,0,0.01
2013-6-19,81.0,66.9,57.2,63.0,57.1,51.0,96,74,40,30.19,29.91,5,0,0,0.01
2013-6-20,82.2,67.5,51.7,62.0,56.8,50.0,96,72,42,30.30,30.20,6,1,0,0.01
2013-6-21,84.8,68.2,52.1,60.0,55.5,50.0,96,68,39,30.34,30.27,8,1,0,0.02
2013-6-22,88.1,70.5,52.3,69.0,61.8,50.0,96,76,50,30.29,30.14,4,1,0,0.01
2013-6-23,86.4,73.6,60.4,76.0,68.0,59.0,96,83,60,30.22,30.08,6,1,0,0.01
2013-6-24,93.8,76.4,66.7,76.0,69.8,65.0,97,82,54,30.12,30.02,17,1,0,0.01
2013-6-25,93.2,75.7,62.3,75.0,69.0,61.0,97,82,49,30.05,29.88,7,1,0,0.01
2013-6-26,91.9,77.4,66.0,74.0,68.8,64.0,94,77,50,29.91,29.80,4,0,0,0.01
2013-6-27,89.0,75.4,65.9,75.0,70.2,65.0,97,85,58,29.84,29.59,5,1,0,0.02
2013-6-28,86.9,73.9,67.5,72.0,68.9,66.0,97,85,55,29.61,29.51,7,1,0,0.02
2013-6-29,88.6,75.7,64.6,71.0,66.6,63.0,97,76,44,29.73,29.51,7,1,0,0.02
2013-6-30,83.4,75.0,66.5,75.0,70.4,64.0,96,86,66,29.90,29.72,7,1,0,0.03
2013-7-1,78.7,74.8,70.8,74.0,72.3,69.0,96,92,83,30.02,29.88,9,1,0,0.03
2013-7-2,84.6,76.1,72.7,75.0,72.4,71.0,96,88,70,30.20,30.02,9,2,0,0.04
2013-7-3,86.2,76.9,71.0,77.0,73.0,69.0,96,88,70,30.26,30.19,4,1,0,0.04
2013-7-4,89.0,78.6,71.4,76.0,72.7,69.0,96,83,65,30.28,30.19,11,1,0,0.07
2013-7-5,90.7,80.3,70.1,77.0,73.2,68.0,96,80,58,30.24,30.13,7,1,0,0.09
2013-7-6,95.5,81.0,69.8,77.0,72.8,68.0,97,79,50,30.20,30.07,6,0,0,0.10
2013-7-7,93.7,79.1,68.6,79.0,72.2,67.0,96,81,57,30.12,29.99,4,0,0,0.10
2013-7-8,87.6,74.5,67.1,73.0,68.9,66.0,97,84,53,30.10,30.04,2,0,0,0.08
2013-7-9,87.7,76.9,67.9,76.0,70.9,66.0,96,82,64,30.11,30.02,4,0,0,0.07
2013-7-10,87.3,78.2,69.8,77.0,73.2,68.0,96,85,68,30.03,29.85,6,1,0,0.06
2013-7-11,87.3,76.9,69.3,74.0,70.4,66.0,94,81,58,29.94,29.84,2,0,0,0.05
2013-7-12,72.6,68.9,65.9,70.0,65.8,63.0,96,90,79,30.06,29.93,6,1,0,0.04
2013-7-13,89.1,75.7,68.3,76.0,71.7,67.0,97,88,65,30.32,30.05,6,1,0,0.04
2013-7-14,93.3,80.4,71.7,77.0,73.1,70.0,97,80,53,30.37,30.28,5,0,0,0.03
2013-7-15,97.3,81.1,67.9,78.0,72.5,67.0,97,77,48,30.30,30.19,4,0,0,0.02
2013-7-16,95.1,84.7,72.8,75.0,69.2,-99.9,92,64,47,30.24,30.17,5,-17,0,0.02
2013-7-17,97.4,77.4,67.4,75.0,70.9,66.0,96,82,47,30.23,30.11,2,0,0,0.02
2013-7-18,99.7,85.6,71.3,80.0,75.9,70.0,96,75,49,30.12,30.00,2,0,0,0.02
2013-7-19,97.6,84.9,75.3,81.0,76.9,70.0,96,78,56,30.02,29.85,7,1,0,0.02
2013-7-20,91.9,80.8,72.1,77.0,72.5,68.0,92,77,58,29.89,29.79,11,1,0,0.01
2013-7-21,90.1,79.1,69.9,75.0,71.6,68.0,95,79,56,29.96,29.88,3,0,0,0.01
2013-7-22,90.5,78.1,70.4,76.0,72.1,69.0,96,83,60,29.96,29.78,3,0,0,0.02
2013-7-23,88.1,76.8,69.4,74.0,71.0,67.0,96,83,62,29.79,29.63,5,0,0,0.02
2013-7-24,79.0,71.5,64.3,69.0,64.7,53.0,96,80,60,29.97,29.68,6,1,0,0.01
2013-7-25,74.6,63.7,55.0,63.0,56.5,51.0,89,78,63,30.07,29.96,5,1,0,0.01
2013-7-26,85.5,70.8,60.4,64.0,60.3,58.0,94,72,43,30.10,30.04,4,0,0,0.01
2013-7-27,83.8,70.1,56.2,71.0,63.5,55.0,97,81,60,30.09,29.95,6,1,0,0.01
2013-7-28,84.7,73.0,66.3,74.0,68.5,64.0,95,86,63,30.00,29.91,6,0,0,0.01
2013-7-29,83.8,72.0,59.5,68.0,60.5,54.0,95,71,39,30.16,29.98,4,0,0,0.01
2013-7-30,82.9,67.9,55.5,63.0,58.1,54.0,96,74,45,30.23,30.16,5,0,0,0.01
2013-7-31,83.9,69.7,54.6,68.0,62.4,53.0,96,79,53,30.19,30.05,4,0,0,0.01
2013-8-1,79.4,70.0,66.3,73.0,67.3,64.0,96,91,75,30.05,29.84,4,0,0,0.01
2013-8-2,86.3,73.8,63.7,70.0,65.2,61.0,97,77,48,29.97,29.85,6,1,0,0.01
2013-8-3,77.6,68.2,62.4,68.0,64.3,60.0,96,87,69,29.97,29.92,6,0,0,0.01
2013-8-4,78.9,68.1,57.9,63.0,58.6,55.0,95,74,47,30.04,29.91,5,1,0,0.01
2013-8-5,79.6,64.6,52.1,60.0,54.5,51.0,96,74,40,30.13,30.04,4,0,0,0.00
2013-8-6,73.6,64.0,53.2,65.0,59.6,52.0,96,86,70,30.14,30.07,6,1,0,0.01
2013-8-7,74.3,69.1,64.4,71.0,66.9,63.0,96,93,86,30.13,30.06,4,1,0,0.01
2013-8-8,87.2,75.7,68.1,76.0,71.2,67.0,97,86,64,30.08,30.00,6,1,0,0.01
2013-8-9,85.1,77.5,72.3,77.0,73.7,71.0,97,88,73,30.01,29.85,7,1,0,0.01
2013-8-10,86.1,74.8,65.5,72.0,66.8,63.0,95,78,50,30.09,29.92,3,0,0,0.01
2013-8-11,87.0,71.8,59.0,69.0,63.3,58.0,96,77,49,30.16,30.04,4,0,0,0.01
2013-8-12,88.1,75.3,67.8,71.0,68.2,66.0,96,80,49,30.06,29.96,4,0,0,0.00
2013-8-13,84.1,74.3,66.2,72.0,69.0,63.0,97,84,62,29.83,29.75,3,0,0,0.02
2013-8-14,73.0,64.2,53.6,62.0,52.9,49.0,91,68,51,30.10,29.82,11,2,0,0.02
2013-8-15,79.8,62.1,46.8,58.0,51.8,45.0,97,73,38,30.21,30.11,4,0,0,0.01
2013-8-16,81.7,64.8,48.8,64.0,55.0,47.0,97,74,40,30.24,30.17,4,0,0,0.01
2013-8-17,83.8,66.6,51.2,65.0,57.4,50.0,97,76,41,30.30,30.24,4,0,0,0.01
2013-8-18,73.2,65.6,60.7,64.0,60.7,59.0,96,85,64,30.28,30.18,4,0,0,0.01
2013-8-19,75.8,66.7,58.0,68.0,62.1,56.0,96,85,68,30.20,30.09,4,0,0,0.01
2013-8-20,88.4,72.2,58.3,71.0,64.5,57.0,97,79,49,30.19,30.11,3,0,0,0.01
2013-8-21,90.3,72.9,57.8,74.0,66.0,56.0,97,81,48,30.22,30.09,4,0,0,0.01
2013-8-22,85.3,74.6,68.4,75.0,70.6,67.0,96,87,65,30.11,29.93,4,0,0,0.01
2013-8-23,74.0,68.5,59.0,68.0,64.4,57.0,96,87,73,30.13,29.95,6,0,0,0.01
2013-8-24,81.1,65.5,55.4,61.0,56.7,54.0,96,76,43,30.39,30.14,7,1,0,0.00
2013-8-25,83.2,64.8,48.7,65.0,55.7,47.0,97,76,42,30.45,30.29,4,0,0,0.01
2013-8-26,87.8,70.5,56.3,69.0,62.7,55.0,96,79,50,30.30,29.98,6,0,0,0.00
2013-8-27,89.6,75.4,66.6,72.0,68.1,65.0,95,80,52,29.98,29.89,6,1,0,0.01
2013-8-28,77.4,70.3,66.7,74.0,68.8,65.0,97,95,89,29.93,29.85,2,0,0,0.00
2013-8-29,83.8,73.0,68.4,73.0,69.4,67.0,97,89,65,30.05,29.90,4,0,0,0.01
2013-8-30,84.4,73.4,66.0,74.0,69.1,65.0,97,87,68,30.05,29.90,6,0,0,0.01
2013-8-31,88.8,76.7,67.7,77.0,71.8,67.0,97,85,65,29.91,29.81,7,1,0,0.00
2013-9-1,90.5,78.3,71.0,76.0,72.8,70.0,96,84,60,29.86,29.78,6,0,0,0.01
2013-9-2,86.0,76.1,65.6,76.0,71.6,64.0,97,86,67,29.80,29.73,5,0,0,0.01
2013-9-3,81.4,70.8,60.0,69.0,62.5,56.0,97,77,49,29.96,29.75,5,1,0,0.01
2013-9-4,81.8,67.0,56.1,62.0,57.6,54.0,95,75,42,30.08,29.95,6,1,0,0.00
2013-9-5,79.4,64.7,52.6,64.0,56.0,50.0,97,76,40,30.18,30.01,4,0,0,0.01
2013-9-6,74.4,58.2,47.1,51.0,46.3,39.0,94,69,30,30.29,30.18,4,0,0,0.01
2013-9-7,81.1,60.6,42.3,60.0,51.1,41.0,97,75,37,30.18,29.96,4,0,0,0.00
2013-9-8,81.2,68.4,55.1,67.0,60.6,49.0,96,78,56,30.11,29.90,6,1,0,0.00
2013-9-9,75.6,61.7,45.4,64.0,55.2,44.0,95,80,59,30.25,30.11,6,1,0,0.01
2013-9-10,88.6,75.8,66.7,77.0,70.5,64.0,95,84,65,30.20,30.09,8,1,0,0.01
2013-9-11,93.4,79.2,69.1,79.0,72.6,68.0,97,82,57,30.16,30.02,6,0,0,0.00
2013-9-12,86.8,73.7,67.6,77.0,70.1,66.0,96,89,68,30.01,29.75,4,0,0,0.00
2013-9-13,74.6,66.1,55.8,67.0,59.0,51.0,96,80,51,29.93,29.69,8,1,0,0.01
2013-9-14,62.7,54.1,44.2,50.0,47.2,42.0,92,78,58,30.20,29.94,8,1,0,0.01
2013-9-15,74.6,55.4,39.0,56.0,48.2,38.0,97,80,48,30.28,30.13,3,0,0,0.00
2013-9-16,69.9,58.8,53.2,59.0,54.3,49.0,96,86,61,30.28,30.08,5,1,0,0.00
2013-9-17,67.1,52.6,41.5,49.0,43.1,39.0,93,73,43,30.47,30.29,7,1,0,0.01
2013-9-18,72.0,52.5,36.6,53.0,43.3,35.0,97,75,38,30.40,30.24,5,0,0,0.00
2013-9-19,78.2,57.3,40.2,60.0,49.4,39.0,97,78,43,30.25,30.11,6,0,0,0.00
2013-9-20,80.0,61.5,45.6,64.0,54.5,44.0,97,80,50,30.13,30.01,4,0,0,0.00
2013-9-21,77.3,62.1,47.9,65.0,57.7,46.0,97,86,61,30.03,29.72,8,1,0,0.00
2013-9-22,66.6,59.7,46.9,60.0,52.5,45.0,96,79,54,29.97,29.72,9,1,0,0.00
2013-9-23,66.0,52.7,42.0,49.0,44.7,40.0,94,76,51,30.11,29.98,10,1,0,0.01
2013-9-24,71.6,51.9,37.2,54.0,44.8,36.0,96,79,48,30.13,29.97,5,0,0,0.01
2013-9-25,75.8,54.5,39.8,52.0,45.8,38.0,97,76,36,30.02,29.92,3,0,0,0.00
2013-9-26,75.4,57.5,43.6,59.0,51.0,42.0,96,81,47,30.12,29.98,5,0,0,0.00
2013-9-27,73.1,60.4,50.8,57.0,53.8,49.0,96,81,52,30.29,30.12,3,0,0,0.00
2013-9-28,72.7,58.4,47.7,58.0,51.5,46.0,96,80,47,30.35,30.27,7,0,0,0.01
2013-9-29,73.3,55.8,42.6,60.0,49.5,41.0,97,81,52,30.27,30.11,3,0,0,0.01
2013-9-30,75.4,56.4,42.2,57.0,49.8,41.0,97,81,47,30.13,30.02,5,0,0,0.00
2013-10-1,80.3,60.7,46.1,64.0,54.2,45.0,97,81,49,30.08,29.98,4,0,0,0.00
2013-10-2,83.1,64.9,50.3,66.0,58.0,49.0,97,80,51,30.08,29.99,9,1,0,0.00
2013-10-3,84.1,66.7,53.3,67.0,59.9,52.0,97,81,50,30.16,30.07,5,0,0,0.00
2013-10-4,86.3,69.1,56.2,69.0,62.5,55.0,97,81,52,30.11,30.02,4,0,0,0.00
2013-10-5,88.1,72.5,60.8,70.0,65.3,59.0,97,80,48,30.11,30.02,2,0,0,0.00
2013-10-6,84.7,71.4,65.4,71.0,66.8,64.0,95,86,63,30.07,29.97,7,1,0,0.00
2013-10-7,73.8,64.7,55.1,70.0,61.8,47.0,94,90,71,30.05,29.78,9,2,0,0.00
2013-10-8,64.6,53.2,43.1,50.0,45.8,42.0,96,78,49,30.35,30.06,7,1,0,0.00
2013-10-9,59.2,52.6,45.7,50.0,46.9,44.0,95,82,68,30.40,30.28,5,1,0,0.01
2013-10-10,55.9,53.9,50.8,55.0,51.4,48.0,96,91,77,30.28,30.04,10,3,0,0.01
2013-10-11,60.6,58.3,55.7,60.0,57.5,55.0,97,97,96,30.09,29.98,7,2,0,0.01
2013-10-12,69.5,62.7,58.4,59.0,53.9,47.0,97,74,51,30.24,30.05,6,2,0,0.01
2013-10-13,68.8,59.2,48.4,56.0,51.7,46.0,92,77,56,30.39,30.24,6,2,0,0.00
2013-10-14,69.5,54.2,44.1,54.0,48.4,43.0,96,83,53,30.39,30.27,4,0,0,0.01
2013-10-15,73.1,54.3,42.0,56.0,47.3,40.0,97,80,44,30.29,30.14,5,0,0,0.01
2013-10-16,67.7,57.2,46.7,59.0,53.6,45.0,96,88,71,30.14,29.96,4,0,0,0.00
2013-10-17,73.1,63.1,55.4,63.0,59.9,54.0,96,90,70,29.96,29.74,7,1,0,0.01
2013-10-18,63.3,54.7,40.7,58.0,45.2,38.0,92,72,50,30.05,29.79,10,2,0,0.01
2013-10-19,63.0,49.4,36.6,53.0,44.7,35.0,96,85,61,30.05,29.81,9,1,0,0.00
2013-10-20,61.1,49.7,37.2,48.0,39.7,35.0,93,70,44,30.13,29.85,6,1,0,0.00
2013-10-21,66.9,48.2,32.7,48.0,38.7,31.0,96,74,36,30.20,30.01,9,1,0,0.00
2013-10-22,59.5,43.8,39.3,53.0,29.8,-99.9,97,75,59,30.01,29.83,3,-93,0,0.00
2013-10-23,55.0,40.5,38.1,38.0,20.0,-99.9,91,62,48,29.87,29.68,8,-113,0,0.02
2013-10-24,49.1,40.8,33.4,36.0,31.2,28.0,91,70,47,30.12,29.86,10,1,0,0.02
2013-10-25,51.6,41.6,33.1,36.0,32.3,29.0,85,70,52,30.31,30.12,11,2,0,0.00
2013-10-26,54.4,42.7,29.2,36.0,30.9,27.0,93,66,42,30.31,29.96,17,2,0,0.00
2013-10-27,56.2,45.7,32.1,36.0,32.7,29.0,88,62,44,30.20,29.95,11,1,0,0.00
2013-10-28,62.4,41.7,27.6,41.0,33.2,26.0,95,75,39,30.35,30.19,4,0,0,0.00
2013-10-29,60.8,43.8,32.9,43.0,36.7,31.0,95,78,49,30.44,30.35,5,0,0,0.00
2013-10-30,56.0,47.3,35.8,53.0,45.4,34.0,96,93,89,30.38,30.21,3,0,0,0.02
2013-10-31,66.3,57.7,48.9,60.0,54.7,47.0,97,90,77,30.25,29.82,7,2,0,0.06
2013-11-1,70.6,62.1,49.2,64.0,56.8,47.0,94,83,57,29.81,29.59,14,3,0,0.26
2013-11-2,66.4,53.5,44.6,54.0,45.9,40.0,99,78,50,29.86,29.67,7,1,0,0.26
2013-11-3,52.1,44.5,33.0,42.0,31.0,20.0,87,61,34,30.50,29.86,15,3,0,0.00
2013-11-4,44.7,34.8,27.9,27.0,21.6,17.0,85,61,35,30.69,30.50,9,1,0,0.00
2013-11-5,57.9,43.1,31.1,43.0,35.8,27.0,92,76,55,30.68,30.52,5,0,0,0.00
2013-11-6,64.8,53.1,41.5,51.0,47.1,39.0,93,81,60,30.53,30.10,8,2,0,0.00
2013-11-7,57.9,52.4,41.9,56.0,47.7,28.0,93,84,58,30.09,29.86,9,2,0,0.13
2013-11-8,47.0,40.0,33.0,33.0,28.1,26.0,85,64,48,30.32,30.04,11,2,0,0.13
2013-11-9,50.8,38.0,25.4,34.0,28.3,23.0,93,71,46,30.37,30.04,9,2,0,0.00
2013-11-10,58.0,43.6,28.5,37.0,31.0,26.0,94,64,43,30.19,29.96,13,3,0,0.00
2013-11-11,54.0,44.1,29.6,38.0,32.4,26.0,90,65,43,30.29,30.03,9,2,0,0.00
2013-11-12,48.7,36.3,22.4,37.0,23.5,13.0,85,61,44,30.39,30.00,11,3,0,0.00
2013-11-13,39.3,30.3,22.1,21.0,16.7,12.0,85,59,40,30.48,30.38,10,2,0,0.00
2013-11-14,55.0,37.2,23.4,27.0,19.7,12.0,86,56,19,30.38,30.25,11,2,0,0.00
2013-11-15,59.8,38.4,24.7,37.0,27.0,21.0,94,70,24,30.31,30.21,3,0,0,0.00
2013-11-16,59.1,47.6,36.2,47.0,43.0,32.0,94,84,64,30.37,30.29,5,1,0,0.07
2013-11-17,64.2,55.4,49.0,57.0,52.3,47.0,95,90,74,30.30,29.77,9,1,0,0.00
2013-11-18,64.5,58.0,47.0,59.0,38.9,25.0,93,53,30,29.91,29.69,13,4,0,0.14
2013-11-19,46.7,40.3,27.9,29.0,25.3,22.0,80,56,43,30.40,29.91,10,3,0,0.00
2013-11-20,46.4,31.6,22.6,26.0,19.9,13.0,90,66,27,30.63,30.40,4,1,0,0.00
2013-11-21,51.3,36.9,20.9,41.0,29.7,17.0,90,76,59,30.65,30.44,4,0,0,0.00
2013-11-22,55.3,49.8,45.3,50.0,46.2,41.0,94,87,82,30.43,30.01,10,1,0,0.01
2013-11-23,51.5,39.9,28.3,47.0,26.8,11.0,84,60,45,30.17,30.03,14,5,0,0.02
2013-11-24,28.1,24.3,21.1,11.0,2.9,0.0,64,40,30,30.50,30.18,15,5,0,0.00
2013-11-25,32.8,25.6,16.7,18.0,12.6,10.0,76,59,42,30.59,30.39,8,2,0,0.00
2013-11-26,47.2,33.5,29.6,46.0,26.5,14.0,96,77,50,30.38,29.68,6,1,0,0.56
2013-11-27,52.9,37.9,28.8,52.0,34.2,18.0,97,87,59,29.93,29.48,12,4,0,0.29
2013-11-28,33.5,28.9,25.7,23.0,18.4,16.0,82,66,52,30.53,29.95,13,3,0,0.29
2013-11-29,37.7,27.0,17.5,25.0,19.5,15.0,93,75,53,30.78,30.52,6,1,0,0.00
2013-11-30,38.7,26.2,15.9,26.0,20.6,13.0,91,80,61,30.78,30.43,5,0,0,0.00
2013-12-1,46.9,31.3,19.5,34.0,25.5,17.0,95,80,53,30.43,30.08,5,0,0,0.00
2013-12-2,48.8,38.4,31.7,35.0,32.3,28.0,90,80,55,30.07,29.92,2,0,0,0.00
2013-12-3,53.6,39.0,28.5,37.0,32.8,26.0,91,80,51,30.06,29.93,3,0,0,0.00
2013-12-4,53.2,42.2,28.8,45.0,37.5,27.0,95,84,68,30.15,30.04,4,0,0,0.00
2013-12-5,55.2,51.6,47.9,54.0,50.2,45.0,97,95,88,30.13,29.96,5,0,0,0.00
2013-12-6,60.5,46.2,34.6,60.0,45.0,33.0,97,95,92,30.21,29.90,9,2,0,0.24
2013-12-7,36.9,33.1,28.0,33.0,28.7,23.0,95,84,69,30.57,30.14,12,2,0,0.13
2013-12-8,28.8,26.1,23.9,26.0,21.6,17.0,94,83,67,30.64,30.36,4,1,0,0.13
2013-12-9,34.6,32.4,27.7,33.0,31.2,26.0,96,95,94,30.36,30.06,4,1,0,0.00
2013-12-10,33.1,28.9,18.4,32.0,27.4,16.0,96,93,87,30.23,30.00,6,1,0,0.00
2013-12-11,18.2,10.8,7.0,17.0,8.2,4.0,93,89,88,30.43,30.23,0,0,0,0.00
2013-12-12,25.9,18.4,8.2,12.0,8.7,5.0,86,67,50,30.44,30.26,10,1,0,0.00
2013-12-13,34.9,23.5,7.6,21.0,14.5,5.0,90,70,49,30.39,30.23,9,1,0,0.01
2013-12-14,30.5,27.7,22.3,29.0,24.5,19.0,95,88,77,30.44,29.79,5,1,0,0.01
2013-12-15,37.5,31.9,24.7,35.0,28.6,21.0,95,88,70,29.94,29.64,6,1,0,0.58
2013-12-16,30.5,23.7,16.0,24.0,13.1,9.0,89,65,46,30.27,29.93,10,2,0,0.01
2013-12-17,28.5,24.3,18.4,25.0,20.4,16.0,91,85,72,30.25,30.01,3,0,0,0.01
2013-12-18,36.0,27.0,18.5,24.0,20.2,16.0,93,77,53,30.26,30.03,6,1,0,0.05
2013-12-19,46.8,28.8,13.8,31.0,22.6,11.0,94,79,49,30.26,30.11,8,1,0,0.35
2013-12-20,50.2,37.1,27.5,37.0,30.9,26.0,94,80,53,30.16,30.04,6,1,0,0.30
2013-12-21,62.9,46.5,32.3,56.0,42.4,31.0,96,86,70,30.06,29.94,11,1,0,0.07
2013-12-22,64.6,61.4,57.5,63.0,58.6,55.0,95,90,86,30.01,29.84,14,4,0,0.13
2013-12-23,58.2,51.4,36.5,57.0,48.2,29.0,96,89,73,30.22,29.94,10,2,0,0.69
2013-12-24,36.6,31.1,23.0,28.0,21.6,11.0,88,69,56,30.45,30.20,11,2,0,0.69
2013-12-25,29.2,23.8,17.8,16.0,11.1,7.0,70,59,47,30.59,30.45,6,2,0,0.00
2013-12-26,38.0,25.5,17.2,30.0,20.9,14.0,91,83,67,30.44,30.24,9,1,0,0.03
2013-12-27,46.3,27.0,15.7,29.0,19.6,14.0,94,77,35,30.44,30.34,10,1,0,0.03
2013-12-28,57.2,36.6,20.6,31.0,25.7,18.0,94,69,33,30.36,30.14,7,1,0,0.00
2013-12-29,42.8,38.7,34.9,42.0,35.9,29.0,95,89,73,30.14,29.52,6,1,0,1.01
2013-12-30,40.9,35.0,25.2,39.0,28.0,15.0,95,77,62,30.22,29.81,11,2,0,1.01
2013-12-31,35.0,27.5,22.3,26.0,17.1,13.0,79,65,50,30.36,30.11,12,2,0,0.00
2014-1-1,38.3,27.5,16.6,26.0,20.8,12.0,89,76,57,30.45,30.23,4,1,0,0.00
2014-1-2,30.6,26.9,18.0,26.0,22.8,16.0,92,85,75,30.22,29.70,6,2,0,0.00